Time;durP1;ratioP1;P1;durP2;ratioP2;P2;SDS_P1;SDS_P2;PMS_P1;PMS_P2;Temp;Humidity;BMP_temperature;BMP_pressure;BME280_temperature;BME280_humidity;BME280_pressure;Samples;Min_cycle;Max_cycle;Signal;HPM_P1;HPM_P2
2021/03/12 00:00:10;;;;;;;2.63;0.93;;;;;;;6.55;72.20;99215.53;5066164;28;20204;-66
2021/03/12 00:02:36;;;;;;;2.70;0.90;;;;;;;6.48;71.99;99219.56;5068210;28;20198;-66
2021/03/12 00:05:04;;;;;;;1.87;0.90;;;;;;;6.46;72.32;99212.69;5071688;28;20224;-65
2021/03/12 00:07:30;;;;;;;3.37;0.90;;;;;;;6.44;71.83;99212.81;5061476;28;20300;-66
2021/03/12 00:09:56;;;;;;;2.77;0.93;;;;;;;6.43;72.33;99228.78;5059791;28;20201;-65
2021/03/12 00:12:22;;;;;;;3.97;0.80;;;;;;;6.42;72.41;99230.59;5061263;28;20750;-65
2021/03/12 00:14:49;;;;;;;2.57;1.10;;;;;;;6.43;72.39;99231.44;5058827;28;20238;-66
2021/03/12 00:17:15;;;;;;;3.70;1.23;;;;;;;6.41;71.99;99228.88;5070838;28;20205;-66
2021/03/12 00:19:41;;;;;;;3.47;0.90;;;;;;;6.39;72.50;99229.94;5065749;28;20568;-65
2021/03/12 00:22:07;;;;;;;2.00;1.00;;;;;;;6.38;72.58;99228.25;5068027;28;20228;-66
2021/03/12 00:24:33;;;;;;;1.97;0.90;;;;;;;6.38;72.68;99231.75;5064526;28;20225;-66
2021/03/12 00:26:59;;;;;;;5.00;2.03;;;;;;;6.38;72.74;99234.38;5072931;28;20207;-65
2021/03/12 00:29:26;;;;;;;5.50;2.20;;;;;;;6.42;73.08;99232.38;5055519;28;20205;-65
2021/03/12 00:31:53;;;;;;;3.90;2.07;;;;;;;6.46;73.19;99234.69;5058617;28;20286;-66
2021/03/12 00:34:19;;;;;;;5.33;3.00;;;;;;;6.50;73.34;99249.41;5070996;28;20340;-66
2021/03/12 00:36:45;;;;;;;4.33;1.60;;;;;;;6.53;73.15;99265.06;5071032;28;20254;-66
2021/03/12 00:39:11;;;;;;;3.93;1.20;;;;;;;6.51;73.15;99255.53;5069637;28;20208;-66
2021/03/12 00:41:37;;;;;;;3.27;1.10;;;;;;;6.46;73.12;99266.41;5071746;28;20204;-66
2021/03/12 00:44:03;;;;;;;4.60;1.57;;;;;;;6.41;73.39;99273.84;5071128;28;20706;-66
2021/03/12 00:46:29;;;;;;;1.83;1.30;;;;;;;6.37;73.19;99264.41;5066128;28;20209;-67
2021/03/12 00:48:56;;;;;;;3.27;1.30;;;;;;;6.33;73.41;99251.50;5061378;28;20258;-67
2021/03/12 00:51:23;;;;;;;2.70;1.10;;;;;;;6.30;73.28;99279.00;5068490;28;20229;-67
2021/03/12 00:53:49;;;;;;;4.13;1.30;;;;;;;6.28;73.33;99283.53;5062883;28;20216;-67
2021/03/12 00:56:15;;;;;;;2.00;1.03;;;;;;;6.25;73.60;99265.25;5066880;28;20692;-66
2021/03/12 00:58:42;;;;;;;4.57;1.70;;;;;;;6.24;73.45;99268.84;5065483;28;20209;-66
2021/03/12 01:01:08;;;;;;;2.80;1.20;;;;;;;6.22;73.88;99276.03;5058701;28;20205;-67
2021/03/12 01:03:34;;;;;;;4.97;1.50;;;;;;;6.19;73.65;99266.50;5061312;28;20229;-66
2021/03/12 01:06:00;;;;;;;7.20;2.20;;;;;;;6.20;73.75;99267.34;5063067;28;20216;-67
2021/03/12 01:08:27;;;;;;;7.70;2.20;;;;;;;6.20;73.84;99267.34;5063028;28;20251;-66
2021/03/12 01:10:53;;;;;;;3.63;1.43;;;;;;;6.21;73.72;99269.06;5068153;28;20256;-65
2021/03/12 01:13:19;;;;;;;3.87;1.63;;;;;;;6.22;73.90;99262.81;5063305;28;20348;-66
2021/03/12 01:15:45;;;;;;;4.87;1.53;;;;;;;6.21;73.99;99261.97;5051775;28;20569;-66
2021/03/12 01:18:11;;;;;;;7.27;3.17;;;;;;;6.22;74.34;99260.19;5058879;28;20204;-66
2021/03/12 01:20:39;;;;;;;6.40;2.87;;;;;;;6.24;74.32;99253.00;5071570;28;20674;-66
2021/03/12 01:23:07;;;;;;;8.20;3.37;;;;;;;6.28;74.35;99260.59;5059553;28;20232;-66
2021/03/12 01:25:37;;;;;;;8.30;3.87;;;;;;;6.33;74.62;99262.94;5069182;28;20334;-66
2021/03/12 01:28:04;;;;;;;11.70;4.20;;;;;;;6.37;74.45;99261.78;5068501;28;20205;-66
2021/03/12 01:30:33;;;;;;;6.90;3.70;;;;;;;6.42;74.60;99277.34;5065555;28;20213;-67
2021/03/12 01:32:59;;;;;;;5.50;4.00;;;;;;;6.45;74.57;99261.25;5065170;28;20254;-67
2021/03/12 01:35:25;;;;;;;9.53;4.07;;;;;;;6.46;74.36;99262.94;5059907;28;20634;-68
2021/03/12 01:37:51;;;;;;;8.47;4.40;;;;;;;6.45;74.38;99261.25;5057055;28;20201;-68
2021/03/12 01:40:20;;;;;;;7.97;5.00;;;;;;;6.45;74.72;99261.25;5069131;28;20296;-67
2021/03/12 01:42:47;;;;;;;7.80;4.87;;;;;;;6.44;74.58;99267.50;5067458;28;20194;-67
2021/03/12 01:45:17;;;;;;;10.20;5.07;;;;;;;6.43;74.88;99271.94;5065361;28;20208;-68
2021/03/12 01:47:43;;;;;;;8.10;5.13;;;;;;;6.43;74.84;99269.28;5058096;28;20754;-67
2021/03/12 01:50:10;;;;;;;9.43;5.40;;;;;;;6.42;74.58;99270.25;5065155;28;20215;-65
2021/03/12 01:52:37;;;;;;;13.00;5.07;;;;;;;6.41;74.87;99270.34;5058319;28;20225;-68
2021/03/12 01:55:05;;;;;;;8.63;5.13;;;;;;;6.42;75.04;99283.47;5063728;28;20223;-67
2021/03/12 01:57:33;;;;;;;8.83;5.93;;;;;;;6.44;74.79;99291.31;5052539;28;20724;-67
2021/03/12 01:59:59;;;;;;;11.80;5.87;;;;;;;6.45;75.00;99293.00;5060730;28;20556;-67
2021/03/12 02:02:25;;;;;;;8.77;5.30;;;;;;;6.46;74.90;99294.66;5057437;28;20205;-67
2021/03/12 02:04:51;;;;;;;7.13;5.10;;;;;;;6.49;74.74;99297.09;5054241;28;20229;-67
2021/03/12 02:07:17;;;;;;;12.20;5.30;;;;;;;6.49;74.61;99294.47;5064277;28;20205;-67
2021/03/12 02:09:44;;;;;;;9.87;4.87;;;;;;;6.47;74.51;99289.28;5051393;28;20230;-67
2021/03/12 02:12:17;;;;;;;7.37;3.97;;;;;;;6.45;74.39;99307.03;5057492;28;20235;-67
2021/03/12 02:14:53;;;;;;;8.63;4.40;;;;;;;6.41;74.24;99312.66;5061709;28;20746;-67
2021/03/12 02:17:24;;;;;;;7.60;4.23;;;;;;;6.36;74.21;99320.03;5066144;28;20209;-67
2021/03/12 02:20:09;;;;;;;6.90;4.67;;;;;;;6.35;74.22;99334.22;5061024;28;20200;-67
2021/03/12 02:22:40;;;;;;;10.73;5.40;;;;;;;6.33;74.20;99328.19;5065324;28;20214;-67
2021/03/12 02:25:11;;;;;;;8.60;5.30;;;;;;;6.32;74.23;99329.13;5053521;28;20444;-68
2021/03/12 02:27:38;;;;;;;7.03;5.27;;;;;;;6.30;74.63;99344.25;5066866;28;20198;-68
2021/03/12 02:30:06;;;;;;;5.57;3.40;;;;;;;6.25;74.98;99347.22;5064321;28;20209;-67
2021/03/12 02:32:34;;;;;;;5.70;3.47;;;;;;;6.18;74.79;99362.63;5053147;28;20225;-68
2021/03/12 02:35:03;;;;;;;5.10;3.60;;;;;;;6.09;74.95;99365.84;5063598;28;20775;-68
2021/03/12 02:37:30;;;;;;;5.43;2.87;;;;;;;6.01;74.97;99360.25;5062569;28;20212;-68
2021/03/12 02:40:01;;;;;;;4.60;3.40;;;;;;;5.91;75.61;99365.25;5061016;28;20198;-68
2021/03/12 02:42:28;;;;;;;4.63;2.77;;;;;;;5.83;75.67;99366.69;5062532;28;20205;-67
2021/03/12 02:45:00;;;;;;;5.07;2.50;;;;;;;5.76;75.87;99376.78;5063382;28;20228;-67
2021/03/12 02:47:28;;;;;;;3.17;1.70;;;;;;;5.71;75.75;99376.25;5066959;28;20212;-67
2021/03/12 02:49:54;;;;;;;2.60;1.73;;;;;;;5.63;75.60;99378.50;5064466;28;20667;-67
2021/03/12 02:52:22;;;;;;;2.10;1.50;;;;;;;5.54;75.86;99379.97;5048050;28;20317;-67
2021/03/12 02:54:49;;;;;;;3.43;1.53;;;;;;;5.49;76.15;99395.22;5062661;28;20768;-65
2021/03/12 02:57:18;;;;;;;3.77;2.10;;;;;;;5.46;75.94;99392.78;5051234;28;20630;-67
2021/03/12 02:59:45;;;;;;;4.57;1.93;;;;;;;5.41;76.76;99400.13;5055429;28;20309;-65
2021/03/12 03:02:12;;;;;;;4.30;2.03;;;;;;;5.40;76.82;99408.13;5050641;28;20297;-67
2021/03/12 03:04:40;;;;;;;4.33;2.60;;;;;;;5.40;76.69;99405.50;5062707;28;20279;-66
2021/03/12 03:07:08;;;;;;;5.27;2.50;;;;;;;5.39;76.76;99417.84;5055926;28;20205;-66
2021/03/12 03:09:36;;;;;;;3.87;2.47;;;;;;;5.41;76.86;99421.25;5065323;28;20205;-66
2021/03/12 03:12:02;;;;;;;5.30;2.10;;;;;;;5.41;77.08;99423.91;5063580;28;20702;-66
2021/03/12 03:14:30;;;;;;;4.03;2.13;;;;;;;5.40;76.78;99416.91;5048856;28;20233;-67
2021/03/12 03:16:59;;;;;;;3.37;1.83;;;;;;;5.39;77.17;99425.78;5049780;28;20207;-67
2021/03/12 03:19:27;;;;;;;3.80;2.10;;;;;;;5.40;76.92;99431.91;5050344;28;20632;-66
2021/03/12 03:21:57;;;;;;;2.93;1.83;;;;;;;5.38;77.38;99431.16;5059919;28;20258;-65
2021/03/12 03:24:23;;;;;;;3.07;1.57;;;;;;;5.37;77.28;99432.13;5056003;28;20217;-67
2021/03/12 03:26:49;;;;;;;4.70;2.70;;;;;;;5.36;77.34;99441.81;5055731;28;20659;-67
2021/03/12 03:29:15;;;;;;;4.20;2.23;;;;;;;5.34;77.30;99442.88;5053310;28;20218;-66
2021/03/12 03:31:42;;;;;;;4.33;2.20;;;;;;;5.31;76.98;99429.84;5059370;28;20229;-66
2021/03/12 03:34:08;;;;;;;4.37;2.20;;;;;;;5.28;76.68;99433.50;5052017;28;20229;-66
2021/03/12 03:36:35;;;;;;;4.03;2.57;;;;;;;5.28;77.22;99446.72;5050976;28;20216;-66
2021/03/12 03:39:01;;;;;;;4.23;2.67;;;;;;;5.27;76.79;99450.28;5049811;28;20201;-66
2021/03/12 03:41:27;;;;;;;3.93;2.40;;;;;;;5.27;77.14;99452.94;5057067;28;20622;-66
2021/03/12 03:43:55;;;;;;;4.17;2.93;;;;;;;5.26;77.50;99459.16;5064359;28;20222;-66
2021/03/12 03:46:24;;;;;;;3.97;2.70;;;;;;;5.27;77.26;99467.91;5062102;28;20662;-66
2021/03/12 03:48:51;;;;;;;6.67;3.70;;;;;;;5.28;77.57;99467.84;5062184;28;20572;-66
2021/03/12 03:51:19;;;;;;;5.37;3.13;;;;;;;5.29;77.60;99468.69;5051630;28;20222;-66
2021/03/12 03:53:46;;;;;;;5.10;3.37;;;;;;;5.29;77.05;99468.69;5056995;28;20229;-66
2021/03/12 03:56:16;;;;;;;5.90;3.40;;;;;;;5.32;77.52;99473.78;5063093;28;20234;-65
2021/03/12 03:58:44;;;;;;;4.50;3.43;;;;;;;5.32;77.45;99469.34;5062501;28;20841;-66
2021/03/12 04:01:11;;;;;;;6.93;3.73;;;;;;;5.33;77.44;99471.06;5067838;28;20745;-65
2021/03/12 04:03:37;;;;;;;6.90;3.67;;;;;;;5.35;77.56;99476.25;5061751;28;20833;-66
2021/03/12 04:06:04;;;;;;;8.73;3.77;;;;;;;5.37;77.39;99471.72;5054543;28;20197;-66
2021/03/12 04:08:32;;;;;;;6.53;3.10;;;;;;;5.37;77.54;99483.13;5071293;28;20204;-66
2021/03/12 04:10:59;;;;;;;7.17;4.13;;;;;;;5.38;77.41;99492.72;5072649;28;20624;-66
2021/03/12 04:13:26;;;;;;;7.80;3.50;;;;;;;5.40;77.60;99488.19;5058240;28;20722;-66
2021/03/12 04:15:52;;;;;;;6.60;3.57;;;;;;;5.41;77.44;99494.34;5064645;28;20202;-66
2021/03/12 04:18:19;;;;;;;5.93;3.17;;;;;;;5.41;77.69;99479.34;5054275;28;20205;-65
2021/03/12 04:20:46;;;;;;;3.27;2.70;;;;;;;5.39;77.29;99499.69;5064532;28;20253;-66
2021/03/12 04:23:13;;;;;;;5.23;2.30;;;;;;;5.36;77.10;99505.19;5061925;28;20714;-66
2021/03/12 04:25:39;;;;;;;5.37;3.27;;;;;;;5.33;77.12;99499.25;5061818;28;20209;-66
2021/03/12 04:28:06;;;;;;;7.70;3.27;;;;;;;5.30;77.27;99502.06;5066034;28;20212;-66
2021/03/12 04:30:33;;;;;;;4.23;2.80;;;;;;;5.26;77.47;99521.66;5065924;28;20210;-67
2021/03/12 04:33:00;;;;;;;3.00;2.40;;;;;;;5.26;77.58;99537.50;5057032;28;20701;-67
2021/03/12 04:35:26;;;;;;;2.87;2.33;;;;;;;5.23;77.82;99538.53;5063037;28;20746;-67
2021/03/12 04:37:53;;;;;;;5.63;2.50;;;;;;;5.21;77.47;99532.47;5065372;28;20201;-67
2021/03/12 04:40:19;;;;;;;4.63;2.20;;;;;;;5.18;77.84;99532.69;5069568;28;20633;-67
2021/03/12 04:42:46;;;;;;;4.87;3.80;;;;;;;5.15;77.43;99535.50;5067202;28;20194;-66
2021/03/12 04:45:14;;;;;;;10.23;3.63;;;;;;;5.14;77.41;99525.88;5062984;28;20299;-67
2021/03/12 04:47:41;;;;;;;4.67;3.13;;;;;;;5.13;77.77;99534.75;5072084;28;20254;-67
2021/03/12 04:50:11;;;;;;;8.27;3.67;;;;;;;5.11;77.71;99536.63;5073898;28;20215;-68
2021/03/12 04:52:38;;;;;;;6.10;3.80;;;;;;;5.10;78.27;99545.47;5060434;28;20222;-67
2021/03/12 04:55:06;;;;;;;6.33;4.37;;;;;;;5.10;78.33;99548.09;5058918;28;20221;-67
2021/03/12 04:57:32;;;;;;;6.93;4.30;;;;;;;5.11;78.47;99555.94;5069320;28;20209;-66
2021/03/12 04:59:59;;;;;;;5.63;3.67;;;;;;;5.12;77.99;99548.88;5064687;28;20204;-67
2021/03/12 05:02:26;;;;;;;2.97;2.00;;;;;;;5.12;78.29;99562.06;5052237;28;20207;-66
2021/03/12 05:04:53;;;;;;;2.67;1.70;;;;;;;5.12;78.32;99560.28;5059138;28;20221;-65
2021/03/12 05:07:20;;;;;;;2.90;2.00;;;;;;;5.10;78.38;99564.78;5068916;28;20205;-67
2021/03/12 05:09:47;;;;;;;4.30;2.43;;;;;;;5.07;78.27;99557.03;5068625;28;20200;-66
2021/03/12 05:12:14;;;;;;;4.53;2.27;;;;;;;5.06;78.28;99573.81;5070378;28;20231;-68
2021/03/12 05:14:40;;;;;;;5.50;2.73;;;;;;;5.06;78.37;99567.69;5067315;28;20236;-67
2021/03/12 05:17:06;;;;;;;5.73;3.23;;;;;;;5.06;77.96;99575.59;5062840;28;20372;-67
2021/03/12 05:19:33;;;;;;;6.17;3.17;;;;;;;5.05;77.98;99574.75;5067619;28;20292;-67
2021/03/12 05:22:00;;;;;;;5.40;3.07;;;;;;;5.05;77.90;99602.94;5066784;28;20228;-67
2021/03/12 05:24:26;;;;;;;5.63;2.77;;;;;;;5.06;77.98;99594.06;5068331;28;20644;-67
2021/03/12 05:26:52;;;;;;;4.50;2.03;;;;;;;5.03;77.61;99589.81;5066649;28;20300;-68
2021/03/12 05:29:19;;;;;;;3.43;2.07;;;;;;;4.97;77.92;99591.97;5068966;28;20205;-68
2021/03/12 05:31:45;;;;;;;2.47;1.70;;;;;;;4.91;77.61;99589.69;5064570;28;20224;-69
2021/03/12 05:34:11;;;;;;;2.90;1.90;;;;;;;4.82;78.18;99597.19;5064184;28;20575;-68
2021/03/12 05:36:38;;;;;;;5.13;2.23;;;;;;;4.77;78.14;99611.56;5070266;28;20205;-66
2021/03/12 05:39:05;;;;;;;6.00;2.40;;;;;;;4.70;78.22;99616.34;5068149;28;20201;-67
2021/03/12 05:41:31;;;;;;;5.00;2.13;;;;;;;4.65;78.41;99599.94;5065270;28;20193;-67
2021/03/12 05:44:02;;;;;;;3.37;2.00;;;;;;;4.60;78.73;99614.31;5067275;28;20596;-66
2021/03/12 05:46:28;;;;;;;2.70;1.80;;;;;;;4.55;78.90;99611.91;5068055;28;20211;-66
2021/03/12 05:48:55;;;;;;;2.30;1.90;;;;;;;4.52;78.58;99614.72;5065220;28;20252;-66
2021/03/12 05:51:22;;;;;;;2.80;2.20;;;;;;;4.49;78.88;99625.41;5069855;28;20227;-66
2021/03/12 05:53:49;;;;;;;4.60;2.50;;;;;;;4.47;78.49;99624.69;5054920;28;20611;-65
2021/03/12 05:56:16;;;;;;;7.13;3.20;;;;;;;4.46;79.15;99636.16;5053156;28;20240;-66
2021/03/12 05:58:42;;;;;;;4.40;3.00;;;;;;;4.47;78.81;99630.81;5061258;28;20309;-66
2021/03/12 06:01:08;;;;;;;5.57;3.53;;;;;;;4.48;78.81;99629.84;5059230;28;20209;-66
2021/03/12 06:03:34;;;;;;;5.83;3.17;;;;;;;4.51;79.06;99639.38;5066672;28;20583;-66
2021/03/12 06:06:00;;;;;;;4.43;3.07;;;;;;;4.53;78.84;99648.06;5069634;28;21000;-66
2021/03/12 06:08:27;;;;;;;5.73;3.40;;;;;;;4.55;79.08;99651.47;5064518;28;20200;-66
2021/03/12 06:10:54;;;;;;;5.87;3.30;;;;;;;4.56;79.49;99653.16;5069854;28;20205;-66
2021/03/12 06:13:20;;;;;;;5.10;3.20;;;;;;;4.55;79.44;99662.00;5062616;28;20237;-66
2021/03/12 06:15:47;;;;;;;6.57;3.43;;;;;;;4.54;79.53;99671.72;5064373;28;20227;-66
2021/03/12 06:18:14;;;;;;;6.70;2.77;;;;;;;4.57;79.27;99683.88;5065670;28;20674;-66
2021/03/12 06:20:41;;;;;;;4.90;2.50;;;;;;;4.58;79.34;99688.22;5062359;28;20196;-66
2021/03/12 06:23:07;;;;;;;7.13;2.80;;;;;;;4.58;79.29;99684.72;5059617;28;20217;-66
2021/03/12 06:25:34;;;;;;;3.67;2.40;;;;;;;4.58;79.19;99690.84;5063046;28;20203;-69
2021/03/12 06:28:15;;;;;;;5.13;2.70;;;;;;;4.59;78.67;99686.44;5063909;28;20280;-69
2021/03/12 06:30:41;;;;;;;7.13;2.93;;;;;;;4.58;78.87;99690.84;5065848;28;20640;-69
2021/03/12 06:33:07;;;;;;;3.93;2.60;;;;;;;4.58;79.18;99692.63;5063662;28;20666;-69
2021/03/12 06:35:37;;;;;;;3.73;2.50;;;;;;;4.59;79.29;99687.28;5060609;28;20307;-69
2021/03/12 06:38:07;;;;;;;5.63;2.73;;;;;;;4.59;78.66;99699.63;5066211;28;20200;-69
2021/03/12 06:40:39;;;;;;;5.80;2.57;;;;;;;4.58;78.85;99696.13;5066364;28;20202;-68
2021/03/12 06:43:07;;;;;;;4.97;3.43;;;;;;;4.59;79.03;99704.91;5059063;28;20221;-69
2021/03/12 06:45:52;;;;;;;6.57;2.93;;;;;;;4.60;78.48;99701.31;5061654;28;20604;-68
2021/03/12 06:48:21;;;;;;;5.97;3.83;;;;;;;4.64;78.82;99711.63;5069893;28;20247;-68
2021/03/12 06:50:49;;;;;;;5.63;3.17;;;;;;;4.66;78.48;99712.38;5062797;28;20286;-69
2021/03/12 06:53:24;;;;;;;6.43;3.87;;;;;;;4.70;79.09;99719.19;5068479;28;20315;-69
2021/03/12 06:55:51;;;;;;;7.80;3.90;;;;;;;4.74;79.23;99725.16;5060293;28;20207;-68
2021/03/12 06:58:17;;;;;;;6.67;4.63;;;;;;;4.76;78.65;99723.28;5060499;28;20204;-68
2021/03/12 07:00:45;;;;;;;8.47;5.13;;;;;;;4.77;79.51;99717.94;5063549;28;20223;-68
2021/03/12 07:03:22;;;;;;;7.53;5.00;;;;;;;4.81;78.86;99737.94;5054021;28;20250;-68
2021/03/12 07:06:03;;;;;;;6.57;4.43;;;;;;;4.84;79.38;99740.38;5058156;28;20552;-68
2021/03/12 07:08:31;;;;;;;7.33;4.83;;;;;;;4.87;78.59;99737.59;5067945;28;20572;-69
2021/03/12 07:10:58;;;;;;;7.13;4.80;;;;;;;4.89;79.09;99743.63;5064001;28;20291;-67
2021/03/12 07:13:24;;;;;;;6.20;4.47;;;;;;;4.94;78.72;99738.13;5069097;28;20239;-67
2021/03/12 07:15:53;;;;;;;7.77;4.13;;;;;;;4.98;78.79;99744.94;5062958;28;20201;-68
2021/03/12 07:18:20;;;;;;;7.37;4.57;;;;;;;5.02;78.89;99743.81;5060665;28;20210;-68
2021/03/12 07:20:46;;;;;;;7.00;4.23;;;;;;;5.06;78.29;99752.41;5055550;28;20209;-68
2021/03/12 07:23:15;;;;;;;6.17;3.20;;;;;;;5.11;78.38;99760.94;5057014;28;20227;-68
2021/03/12 07:25:44;;;;;;;6.57;4.53;;;;;;;5.15;78.24;99757.22;5067790;28;20220;-68
2021/03/12 07:28:14;;;;;;;6.97;4.70;;;;;;;5.22;78.24;99767.31;5060826;28;20202;-68
2021/03/12 07:30:42;;;;;;;7.20;4.30;;;;;;;5.27;78.15;99761.78;5065440;28;20207;-68
2021/03/12 07:33:10;;;;;;;6.10;4.73;;;;;;;5.34;77.56;99763.16;5067286;28;20240;-68
2021/03/12 07:35:37;;;;;;;9.90;5.07;;;;;;;5.37;77.63;99767.44;5061574;28;20342;-68
2021/03/12 07:38:05;;;;;;;6.40;5.33;;;;;;;5.40;77.71;99761.94;5062015;28;20606;-68
2021/03/12 07:40:32;;;;;;;7.80;4.97;;;;;;;5.43;77.06;99773.19;5069813;28;20564;-68
2021/03/12 07:42:59;;;;;;;10.87;5.50;;;;;;;5.45;77.44;99763.41;5072685;28;20287;-68
2021/03/12 07:45:26;;;;;;;9.17;4.83;;;;;;;5.51;76.64;99767.50;5071294;28;20201;-68
2021/03/12 07:47:52;;;;;;;6.80;4.57;;;;;;;5.53;76.65;99763.84;5064825;28;20201;-67
2021/03/12 07:50:31;;;;;;;7.97;5.00;;;;;;;5.56;76.29;99763.63;5063601;28;20282;-68
2021/03/12 07:52:58;;;;;;;7.33;5.23;;;;;;;5.61;76.55;99763.38;5062432;28;20554;-68
2021/03/12 07:55:51;;;;;;;10.90;5.77;;;;;;;5.67;75.87;99767.47;5062788;28;20292;-67
2021/03/12 07:58:48;;;;;;;9.63;5.97;;;;;;;5.73;75.75;99777.69;5052401;28;20201;-68
2021/03/12 08:01:14;;;;;;;10.47;5.77;;;;;;;5.80;75.42;99781.69;5046044;28;20586;-69
2021/03/12 08:03:40;;;;;;;9.40;5.63;;;;;;;5.85;75.00;99782.28;5067286;28;20224;-68
2021/03/12 08:06:29;;;;;;;10.43;5.40;;;;;;;5.92;75.44;99784.47;5068069;28;20630;-68
2021/03/12 08:08:55;;;;;;;7.20;5.10;;;;;;;6.03;74.80;99802.38;5067902;28;20208;-68
2021/03/12 08:11:24;;;;;;;9.07;5.53;;;;;;;6.12;74.71;99796.53;5067009;28;20222;-67
2021/03/12 08:13:50;;;;;;;6.27;4.47;;;;;;;6.21;74.37;99798.66;5071431;28;20225;-68
2021/03/12 08:16:17;;;;;;;8.57;4.80;;;;;;;6.28;73.61;99804.41;5069577;28;20300;-68
2021/03/12 08:18:43;;;;;;;6.67;4.33;;;;;;;6.31;73.15;99808.69;5067540;28;20630;-68
2021/03/12 08:21:35;;;;;;;6.90;4.00;;;;;;;6.34;72.37;99822.56;5068700;28;20829;-68
2021/03/12 08:24:03;;;;;;;7.00;3.53;;;;;;;6.36;71.85;99812.75;5070522;28;20254;-68
2021/03/12 08:26:50;;;;;;;7.53;4.10;;;;;;;6.40;71.77;99810.78;5067565;28;20213;-66
2021/03/12 08:29:36;;;;;;;8.33;3.70;;;;;;;6.43;70.96;99818.56;5067543;28;20208;-68
2021/03/12 08:32:03;;;;;;;7.70;4.60;;;;;;;6.44;70.78;99831.69;5067470;28;20711;-68
2021/03/12 08:34:37;;;;;;;7.73;3.17;;;;;;;6.49;70.10;99829.59;5069611;28;20324;-68
2021/03/12 08:37:42;;;;;;;7.20;3.07;;;;;;;6.56;69.61;99830.09;5067206;28;20192;-68
2021/03/12 08:40:23;;;;;;;7.70;4.33;;;;;;;6.63;69.19;99820.81;5064173;28;20674;-67
2021/03/12 08:42:55;;;;;;;9.67;3.40;;;;;;;6.67;69.05;99832.94;5066183;28;20197;-68
2021/03/12 08:45:36;;;;;;;7.03;3.60;;;;;;;6.72;67.86;99828.22;5067993;28;20197;-68
2021/03/12 08:48:06;;;;;;;5.53;3.77;;;;;;;6.78;67.18;99845.53;5064407;28;20209;-68
2021/03/12 08:50:34;;;;;;;6.83;4.10;;;;;;;6.81;66.97;99827.66;5058948;28;20209;-68
2021/03/12 08:53:01;;;;;;;8.00;3.60;;;;;;;6.92;67.15;99824.38;5063943;28;20226;-68
2021/03/12 08:55:27;;;;;;;7.67;4.27;;;;;;;7.03;66.69;99826.34;5067275;28;20217;-68
2021/03/12 08:58:12;;;;;;;7.10;3.90;;;;;;;7.11;66.45;99832.03;5066985;28;20205;-68
2021/03/12 09:00:38;;;;;;;6.67;3.70;;;;;;;7.22;65.80;99834.84;5068147;28;20206;-68
2021/03/12 09:03:19;;;;;;;5.17;3.80;;;;;;;7.29;65.46;99838.81;5065839;28;20292;-68
2021/03/12 09:05:46;;;;;;;6.00;4.30;;;;;;;7.34;64.76;99839.41;5069347;28;20652;-68
2021/03/12 09:08:13;;;;;;;6.40;5.03;;;;;;;7.37;64.48;99833.88;5069306;28;20207;-67
2021/03/12 09:10:41;;;;;;;11.27;5.63;;;;;;;7.40;64.57;99839.00;5067227;28;20272;-68
2021/03/12 09:13:16;;;;;;;8.40;5.83;;;;;;;7.45;64.44;99839.56;5058084;28;20820;-68
2021/03/12 09:15:42;;;;;;;7.27;5.07;;;;;;;7.55;63.91;99826.56;5068377;28;20210;-68
2021/03/12 09:18:08;;;;;;;10.90;6.20;;;;;;;7.62;63.25;99827.88;5067109;28;20301;-68
2021/03/12 09:20:34;;;;;;;7.43;6.60;;;;;;;7.70;63.53;99832.72;5067674;28;20295;-68
2021/03/12 09:23:01;;;;;;;7.13;5.73;;;;;;;7.75;63.12;99827.94;5067426;28;20216;-68
2021/03/12 09:25:29;;;;;;;10.10;6.37;;;;;;;7.76;62.51;99827.00;5066053;28;20689;-68
2021/03/12 09:28:08;;;;;;;9.33;5.50;;;;;;;7.78;62.48;99838.34;5067226;28;20696;-67
2021/03/12 09:30:37;;;;;;;9.00;6.43;;;;;;;7.84;61.74;99833.50;5067627;28;20590;-68
2021/03/12 09:33:04;;;;;;;7.73;5.80;;;;;;;7.89;62.23;99830.53;5065092;28;20220;-67
2021/03/12 09:35:30;;;;;;;5.77;4.47;;;;;;;7.94;61.94;99828.44;5067468;28;20292;-67
2021/03/12 09:37:58;;;;;;;8.07;5.00;;;;;;;7.99;61.31;99834.31;5059640;28;20662;-67
2021/03/12 09:40:46;;;;;;;10.23;4.63;;;;;;;8.05;61.23;99823.31;5063820;28;20209;-67
2021/03/12 09:43:13;;;;;;;10.60;4.67;;;;;;;8.08;61.08;99823.06;5061765;28;20221;-67
2021/03/12 09:45:46;;;;;;;7.67;4.40;;;;;;;8.11;61.27;99806.13;5065632;28;20208;-67
2021/03/12 09:48:13;;;;;;;6.03;3.83;;;;;;;8.15;60.21;99810.28;5066565;28;20201;-68
2021/03/12 09:50:40;;;;;;;4.30;3.30;;;;;;;8.20;59.75;99813.47;5069680;28;20476;-68
2021/03/12 09:53:07;;;;;;;5.27;3.23;;;;;;;8.21;59.32;99821.34;5066851;28;20225;-67
2021/03/12 09:55:35;;;;;;;7.23;3.30;;;;;;;8.23;59.68;99818.56;5062102;28;20209;-68
2021/03/12 09:58:08;;;;;;;7.87;3.00;;;;;;;8.29;59.73;99824.31;5064928;28;20288;-67
2021/03/12 10:00:34;;;;;;;5.53;3.30;;;;;;;8.32;58.73;99813.53;5063866;28;20235;-68
2021/03/12 10:03:01;;;;;;;5.50;3.40;;;;;;;8.35;58.59;99810.66;5065571;28;20228;-68
2021/03/12 10:05:28;;;;;;;7.00;3.20;;;;;;;8.42;58.90;99818.22;5067976;28;20205;-68
2021/03/12 10:08:00;;;;;;;5.33;3.17;;;;;;;8.44;58.32;99813.63;5064318;28;20205;-68
2021/03/12 10:10:28;;;;;;;5.03;2.50;;;;;;;8.52;58.53;99813.97;5066667;28;20582;-67
2021/03/12 10:12:56;;;;;;;4.43;2.80;;;;;;;8.59;58.12;99809.97;5066112;28;20224;-67
2021/03/12 10:15:25;;;;;;;7.83;3.10;;;;;;;8.64;58.32;99802.53;5116883;22;20730;-80
2021/03/12 10:17:52;;;;;;;3.90;2.80;;;;;;;8.72;58.01;99804.66;5118636;28;20644;-80
2021/03/12 10:20:30;;;;;;;7.03;3.03;;;;;;;8.79;58.58;99816.53;5120019;28;20211;-80
2021/03/12 10:22:59;;;;;;;4.60;2.70;;;;;;;8.81;57.50;99814.63;5119819;28;20255;-80
2021/03/12 10:25:27;;;;;;;6.63;2.77;;;;;;;8.83;57.46;99802.94;5119797;28;20634;-80
2021/03/12 10:27:56;;;;;;;6.57;2.57;;;;;;;8.86;56.30;99813.34;5119093;28;20202;-81
2021/03/12 10:30:28;;;;;;;5.30;2.40;;;;;;;8.90;55.96;99804.22;5119893;28;20211;-81
2021/03/12 10:32:57;;;;;;;6.70;2.33;;;;;;;8.99;56.02;99813.34;5119020;28;20318;-81
2021/03/12 10:35:26;;;;;;;6.27;2.33;;;;;;;9.02;56.01;99803.34;5119914;28;20298;-81
2021/03/12 10:37:54;;;;;;;8.13;2.63;;;;;;;9.07;55.75;99812.81;5121651;28;20254;-81
2021/03/12 10:40:21;;;;;;;8.30;2.17;;;;;;;9.15;56.34;99802.47;5123922;28;20235;-82
2021/03/12 10:42:47;;;;;;;4.43;2.17;;;;;;;9.20;55.36;99803.03;5123689;28;20664;-82
2021/03/12 10:45:32;;;;;;;7.20;2.07;;;;;;;9.29;55.79;99799.72;5117880;28;20238;-81
2021/03/12 10:48:04;;;;;;;6.13;1.27;;;;;;;9.39;54.42;99790.97;5122541;28;20231;-81
2021/03/12 10:50:33;;;;;;;5.73;2.30;;;;;;;9.42;53.79;99794.38;5121152;28;20243;-80
2021/03/12 10:53:07;;;;;;;7.87;2.43;;;;;;;9.40;53.33;99783.84;5117281;28;20306;-81
2021/03/12 10:55:35;;;;;;;5.13;2.30;;;;;;;9.40;53.90;99795.31;5116384;28;20215;-80
2021/03/12 10:58:03;;;;;;;8.50;2.23;;;;;;;9.46;53.05;99794.03;5116791;28;20660;-79
2021/03/12 11:00:31;;;;;;;4.70;1.77;;;;;;;9.47;52.51;99794.88;5118571;28;20203;-81
2021/03/12 11:02:59;;;;;;;4.73;1.87;;;;;;;9.43;52.19;99791.59;5116508;28;20230;-80
2021/03/12 11:05:26;;;;;;;4.33;1.33;;;;;;;9.48;51.64;99799.25;5107320;28;20253;-80
2021/03/12 11:07:52;;;;;;;7.07;1.97;;;;;;;9.42;50.50;99784.59;5120536;28;20298;-80
2021/03/12 11:10:19;;;;;;;6.13;2.20;;;;;;;9.41;51.12;99777.56;5122473;28;20275;-80
2021/03/12 11:12:47;;;;;;;7.50;1.97;;;;;;;9.43;51.59;99791.59;5122331;28;20238;-80
2021/03/12 11:15:16;;;;;;;7.17;1.60;;;;;;;9.39;50.77;99790.97;5121843;28;20235;-81
2021/03/12 11:17:47;;;;;;;5.87;1.90;;;;;;;9.39;50.51;99790.13;5119987;28;20688;-80
2021/03/12 11:20:19;;;;;;;4.53;1.83;;;;;;;9.40;50.56;99786.50;5116762;28;20187;-80
2021/03/12 11:22:47;;;;;;;4.63;1.70;;;;;;;9.43;50.28;99772.16;5117673;28;20259;-80
2021/03/12 11:25:16;;;;;;;5.90;1.63;;;;;;;9.45;49.99;99784.38;5104869;28;20212;-80
2021/03/12 11:27:42;;;;;;;4.37;1.60;;;;;;;9.53;50.26;99791.78;5097642;28;20204;-80
2021/03/12 11:30:11;;;;;;;5.63;1.73;;;;;;;9.53;50.44;99789.97;5096262;28;20210;-81
2021/03/12 11:32:39;;;;;;;6.27;1.57;;;;;;;9.57;49.59;99783.47;5107077;28;20254;-81
2021/03/12 11:35:07;;;;;;;6.17;1.43;;;;;;;9.59;49.58;99786.00;5117118;28;20280;-80
2021/03/12 11:37:33;;;;;;;4.37;1.50;;;;;;;9.63;49.63;99777.72;5119583;28;20211;-81
2021/03/12 11:39:59;;;;;;;5.90;1.90;;;;;;;9.69;50.11;99766.59;5119223;28;20322;-81
2021/03/12 11:42:26;;;;;;;4.37;1.40;;;;;;;9.75;49.79;99773.28;5119604;28;20236;-81
2021/03/12 11:44:52;;;;;;;5.93;1.40;;;;;;;9.80;48.75;99773.81;5101808;28;20680;-80
2021/03/12 11:47:18;;;;;;;5.50;1.73;;;;;;;9.79;48.56;99758.81;5102308;28;20647;-81